Map

Track Data

SID SEASON NUMBER BASIN SUBBASIN NAME ISO_TIME NATURE LAT LON WMO_WIND WMO_PRES WMO_AGENCY TRACK_TYPE DIST2LAND LANDFALL IFLAG USA_AGENCY USA_ATCF_ID USA_LAT USA_LON USA_RECORD USA_STATUS USA_WIND USA_PRES USA_SSHS USA_R34_NE USA_R34_SE USA_R34_SW USA_R34_NW USA_R50_NE USA_R50_SE USA_R50_SW USA_R50_NW USA_R64_NE USA_R64_SE USA_R64_SW USA_R64_NW USA_POCI USA_ROCI USA_RMW USA_EYE TOKYO_LAT TOKYO_LON TOKYO_GRADE TOKYO_WIND TOKYO_PRES TOKYO_R50_DIR TOKYO_R50_LONG TOKYO_R50_SHORT TOKYO_R30_DIR TOKYO_R30_LONG TOKYO_R30_SHORT TOKYO_LAND CMA_LAT CMA_LON CMA_CAT CMA_WIND CMA_PRES HKO_LAT HKO_LON HKO_CAT HKO_WIND HKO_PRES NEWDELHI_LAT NEWDELHI_LON NEWDELHI_GRADE NEWDELHI_WIND NEWDELHI_PRES NEWDELHI_CI NEWDELHI_DP NEWDELHI_POCI REUNION_LAT REUNION_LON REUNION_TYPE REUNION_WIND REUNION_PRES REUNION_TNUM REUNION_CI REUNION_RMW REUNION_R34_NE REUNION_R34_SE REUNION_R34_SW REUNION_R34_NW REUNION_R50_NE REUNION_R50_SE REUNION_R50_SW REUNION_R50_NW REUNION_R64_NE REUNION_R64_SE REUNION_R64_SW REUNION_R64_NW BOM_LAT BOM_LON BOM_TYPE BOM_WIND BOM_PRES BOM_TNUM BOM_CI BOM_RMW BOM_R34_NE BOM_R34_SE BOM_R34_SW BOM_R34_NW BOM_R50_NE BOM_R50_SE BOM_R50_SW BOM_R50_NW BOM_R64_NE BOM_R64_SE BOM_R64_SW BOM_R64_NW BOM_ROCI BOM_POCI BOM_EYE BOM_POS_METHOD BOM_PRES_METHOD NADI_LAT NADI_LON NADI_CAT NADI_WIND NADI_PRES WELLINGTON_LAT WELLINGTON_LON WELLINGTON_WIND WELLINGTON_PRES DS824_LAT DS824_LON DS824_STAGE DS824_WIND DS824_PRES TD9636_LAT TD9636_LON TD9636_STAGE TD9636_WIND TD9636_PRES TD9635_LAT TD9635_LON TD9635_WIND TD9635_PRES TD9635_ROCI NEUMANN_LAT NEUMANN_LON NEUMANN_CLASS NEUMANN_WIND NEUMANN_PRES MLC_LAT MLC_LON MLC_CLASS MLC_WIND MLC_PRES USA_GUST BOM_GUST BOM_GUST_PER REUNION_GUST REUNION_GUST_PER USA_SEAHGT USA_SEARAD_NE USA_SEARAD_SE USA_SEARAD_SW USA_SEARAD_NW STORM_SPEED STORM_DIR
1962180N32282 1962 44 NA NA NOT_NAMED 1962-06-29 00:00:00 ET 32.2000 -77.7000 40 hurdat_atl main 179 179 O_____________ hurdat_atl AL061962 32.2000 -77.7000 EX 40 -4 6 71
1962180N32282 1962 44 NA NA NOT_NAMED 1962-06-29 03:00:00 ET 32.2951 -77.3651 main 186 183 P_____________ AL061962 32.2951 -77.3651 EX 40 -4 6 71
1962180N32282 1962 44 NA NA NOT_NAMED 1962-06-29 06:00:00 ET 32.4000 -77.0000 40 hurdat_atl main 191 191 O_____________ hurdat_atl AL061962 32.4000 -77.0000 EX 40 -4 7 70
1962180N32282 1962 44 NA NA NOT_NAMED 1962-06-29 09:00:00 ET 32.5276 -76.5924 main 203 200 P_____________ AL061962 32.5276 -76.5924 EX 40 -4 7 66
1962180N32282 1962 44 NA NA NOT_NAMED 1962-06-29 12:00:00 ET 32.7000 -76.2000 40 hurdat_atl main 213 208 O_____________ hurdat_atl AL061962 32.7000 -76.2000 EX 40 -4 7 57
1962180N32282 1962 44 NA NA NOT_NAMED 1962-06-29 15:00:00 ET 32.9275 -75.8551 main 208 186 P_____________ AL061962 32.9275 -75.8551 EX 42 -4 7 45
1962180N32282 1962 44 NA NA NOT_NAMED 1962-06-29 18:00:00 ET 33.2000 -75.6000 45 hurdat_atl main 186 167 O_____________ hurdat_atl AL061962 33.2000 -75.6000 EX 45 -4 7 32
1962180N32282 1962 44 NA NA NOT_NAMED 1962-06-29 21:00:00 ET 33.4924 -75.4326 main 167 142 P_____________ AL061962 33.4924 -75.4326 EX 47 -4 6 16
1962180N32282 1962 44 NA NA NOT_NAMED 1962-06-30 00:00:00 ET 33.8000 -75.4000 50 hurdat_atl main 142 113 O_____________ hurdat_atl AL061962 33.8000 -75.4000 EX 50 -4 6 355
1962180N32282 1962 44 NA NA NOT_NAMED 1962-06-30 03:00:00 ET 34.1000 -75.5048 main 113 78 P_____________ AL061962 34.1000 -75.5048 EX 50 -4 7 338
1962180N32282 1962 44 NA NA NOT_NAMED 1962-06-30 06:00:00 ET 34.4000 -75.7000 50 1000 hurdat_atl main 78 42 O_____________ hurdat_atl AL061962 34.4000 -75.7000 EX 50 1000 -4 7 330
1962180N32282 1962 44 NA NA NOT_NAMED 1962-06-30 09:00:00 ET 34.7151 -75.9296 main 42 18 P_____________ AL061962 34.7151 -75.9296 EX 52 1000 -4 7 331
1962180N32282 1962 44 NA NA NOT_NAMED 1962-06-30 12:00:00 ET 35.0000 -76.1000 55 1000 hurdat_atl main 21 9 O_____________ hurdat_atl AL061962 35.0000 -76.1000 EX 55 1000 -4 6 345
1962180N32282 1962 44 NA NA NOT_NAMED 1962-06-30 15:00:00 ET 35.2954 -76.1152 main 9 0 P_____________ AL061962 35.2954 -76.1152 EX 55 999 -4 4 11
1962180N32282 1962 44 NA NA NOT_NAMED 1962-06-30 18:00:00 TS 35.4000 -76.0000 55 998 hurdat_atl main 9 9 O_____________ hurdat_atl AL061962 35.4000 -76.0000 TS 55 998 0 3 110
1962180N32282 1962 44 NA NA NOT_NAMED 1962-06-30 21:00:00 TS 35.2000 -75.8000 55 998 hurdat_atl main 35 35 O_____________ hurdat_atl AL061962 35.2000 -75.8000 L TS 55 998 0 5 149
1962180N32282 1962 44 NA NA NOT_NAMED 1962-07-01 00:00:00 TS 35.0000 -75.7000 55 999 hurdat_atl main 55 55 O_____________ hurdat_atl AL061962 35.0000 -75.7000 TS 55 999 0 4 142
1962180N32282 1962 44 NA NA NOT_NAMED 1962-07-01 03:00:00 TS 34.8521 -75.4679 main 72 72 P_____________ AL061962 34.8521 -75.4679 TS 52 999 0 5 112
1962180N32282 1962 44 NA NA NOT_NAMED 1962-07-01 06:00:00 TS 34.8000 -75.1000 50 1000 hurdat_atl main 104 104 O_____________ hurdat_atl AL061962 34.8000 -75.1000 TS 50 1000 0 7 88
1962180N32282 1962 44 NA NA NOT_NAMED 1962-07-01 09:00:00 TS 34.8700 -74.6378 main 126 126 P_____________ AL061962 34.8700 -74.6378 TS 50 0 8 76
1962180N32282 1962 44 NA NA NOT_NAMED 1962-07-01 12:00:00 TS 35.0000 -74.1000 50 hurdat_atl main 154 154 O_____________ hurdat_atl AL061962 35.0000 -74.1000 TS 50 0 9 75
1962180N32282 1962 44 NA NA NOT_NAMED 1962-07-01 15:00:00 TS 35.0987 -73.6246 main 188 188 P_____________ AL061962 35.0987 -73.6246 TS 47 0 9 77
1962180N32282 1962 44 NA NA NOT_NAMED 1962-07-01 18:00:00 TS 35.2000 -73.0000 45 hurdat_atl main 235 235 O_____________ hurdat_atl AL061962 35.2000 -73.0000 TS 45 0 13 81
1962180N32282 1962 44 NA NA NOT_NAMED 1962-07-01 21:00:00 TS 35.2996 -72.1047 main 311 311 P_____________ AL061962 35.2996 -72.1047 TS 45 0 16 83
1962180N32282 1962 44 NA NA NOT_NAMED 1962-07-02 00:00:00 TS 35.4000 -71.0000 45 hurdat_atl main 408 408 O_____________ hurdat_atl AL061962 35.4000 -71.0000 TS 45 0 19 84
1962180N32282 1962 44 NA NA NOT_NAMED 1962-07-02 03:00:00 TS 35.4923 -69.7869 main 514 514 P_____________ AL061962 35.4923 -69.7869 TS 42 0 20 84
1962180N32282 1962 44 NA NA NOT_NAMED 1962-07-02 06:00:00 TS 35.6000 -68.5000 40 hurdat_atl main 630 630 O_____________ hurdat_atl AL061962 35.6000 -68.5000 TS 40 0 20 83
1962180N32282 1962 44 NA NA NOT_NAMED 1962-07-02 09:00:00 TS 35.7400 -67.2871 main 707 699 P_____________ AL061962 35.7400 -67.2871 TS 40 0 20 82
1962180N32282 1962 44 NA NA NOT_NAMED 1962-07-02 12:00:00 TS 35.9000 -66.0000 40 hurdat_atl main 732 732 O_____________ hurdat_atl AL061962 35.9000 -66.0000 TS 40 0 23 83
1962180N32282 1962 44 NA NA NOT_NAMED 1962-07-02 15:00:00 TS 36.0294 -64.4617 main 792 792 P_____________ AL061962 36.0294 -64.4617 TS 40 0 24 83
1962180N32282 1962 44 NA NA NOT_NAMED 1962-07-02 18:00:00 ET 36.2000 -63.0000 40 hurdat_atl main 835 831 O_____________ hurdat_atl AL061962 36.2000 -63.0000 EX 40 -4 21 79
1962180N32282 1962 44 NA NA NOT_NAMED 1962-07-02 21:00:00 ET 36.4285 -61.9596 main 838 825 P_____________ AL061962 36.4285 -61.9596 EX 42 -4 17 70
1962180N32282 1962 44 NA NA NOT_NAMED 1962-07-03 00:00:00 ET 36.8000 -61.0000 45 hurdat_atl main 829 821 O_____________ hurdat_atl AL061962 36.8000 -61.0000 EX 45 -4 19 62
1962180N32282 1962 44 NA NA NOT_NAMED 1962-07-03 03:00:00 ET 37.2908 -59.8930 main 826 821 P_____________ AL061962 37.2908 -59.8930 EX 45 -4 23 59
1962180N32282 1962 44 NA NA NOT_NAMED 1962-07-03 06:00:00 ET 38.0000 -58.5000 45 hurdat_atl main 826 802 O_____________ hurdat_atl AL061962 38.0000 -58.5000 EX 45 -4 31 60
1962180N32282 1962 44 NA NA NOT_NAMED 1962-07-03 09:00:00 ET 38.8205 -56.4779 main 806 749 P_____________ AL061962 38.8205 -56.4779 EX 45 -4 37 57
1962180N32282 1962 44 NA NA NOT_NAMED 1962-07-03 12:00:00 ET 40.0000 -54.5000 45 hurdat_atl main 737 556 O_____________ hurdat_atl AL061962 40.0000 -54.5000 EX 45 -4 40 43
1962180N32282 1962 44 NA NA NOT_NAMED 1962-07-03 15:00:00 ET 41.7108 -52.9246 main 545 340 P_____________ AL061962 41.7108 -52.9246 EX 45 -4 40 24
1962180N32282 1962 44 NA NA NOT_NAMED 1962-07-03 18:00:00 ET 43.7000 -52.3000 45 hurdat_atl main 329 100 O_____________ hurdat_atl AL061962 43.7000 -52.3000 EX 45 -4 41 358
1962180N32282 1962 44 NA NA NOT_NAMED 1962-07-03 21:00:00 ET 45.8009 -53.1464 main 89 0 P_____________ AL061962 45.8009 -53.1464 EX 42 -4 42 334
1962180N32282 1962 44 NA NA NOT_NAMED 1962-07-04 00:00:00 ET 47.5000 -55.0000 40 hurdat_atl main 0 0 O_____________ hurdat_atl AL061962 47.5000 -55.0000 EX 40 -4 36 315
1962180N32282 1962 44 NA NA NOT_NAMED 1962-07-04 03:00:00 ET 48.3469 -56.9435 main 0 0 P_____________ AL061962 48.3469 -56.9435 EX 37 -4 28 291
1962180N32282 1962 44 NA NA NOT_NAMED 1962-07-04 06:00:00 ET 48.5000 -59.0000 35 hurdat_atl main 11 0 O_____________ hurdat_atl AL061962 48.5000 -59.0000 EX 35 -4 27 267
1962180N32282 1962 44 NA NA NOT_NAMED 1962-07-04 09:00:00 ET 48.2282 -60.9529 main 112 106 P_____________ AL061962 48.2282 -60.9529 EX 35 -4 25 251
1962180N32282 1962 44 NA NA NOT_NAMED 1962-07-04 12:00:00 ET 47.7000 -62.5000 35 hurdat_atl main 136 71 O_____________ hurdat_atl AL061962 47.7000 -62.5000 EX 35 -4 18 245
1962180N32282 1962 44 NA NA NOT_NAMED 1962-07-04 15:00:00 ET 47.4358 -63.4305 main 63 0 P_____________ AL061962 47.4358 -63.4305 EX 35 -4 12 235
1962180N32282 1962 44 NA NA NOT_NAMED 1962-07-04 18:00:00 ET 47.0000 -64.0000 35 hurdat_atl main 0 0 O_____________ hurdat_atl AL061962 47.0000 -64.0000 EX 35 -4 16 211
1962180N32282 1962 44 NA NA NOT_NAMED 1962-07-04 21:00:00 ET 46.0823 -64.6165 main 0 0 P_____________ AL061962 46.0823 -64.6165 EX 32 -4 21 199
1962180N32282 1962 44 NA NA NOT_NAMED 1962-07-05 00:00:00 ET 45.0000 -65.0000 30 hurdat_atl main 0 0 O_____________ hurdat_atl AL061962 45.0000 -65.0000 EX 30 -4 21 190
1962180N32282 1962 44 NA NA NOT_NAMED 1962-07-05 03:00:00 ET 44.0021 -65.1172 main 0 0 P_____________ AL061962 44.0021 -65.1172 EX 27 -4 18 179
1962180N32282 1962 44 NA NA NOT_NAMED 1962-07-05 06:00:00 ET 43.2000 -65.0000 25 hurdat_atl main 41 41 O_____________ hurdat_atl AL061962 43.2000 -65.0000 EX 25 -4 14 169
1962180N32282 1962 44 NA NA NOT_NAMED 1962-07-05 09:00:00 ET 42.6776 -64.7510 main 97 97 P_____________ AL061962 42.6776 -64.7510 EX 25 -4 8 148
1962180N32282 1962 44 NA NA NOT_NAMED 1962-07-05 12:00:00 ET 42.5000 -64.4000 25 hurdat_atl main 132 132 O_____________ hurdat_atl AL061962 42.5000 -64.4000 EX 25 -4 5 92
1962180N32282 1962 44 NA NA NOT_NAMED 1962-07-05 15:00:00 ET 42.6600 -64.0587 main 131 125 P_____________ AL061962 42.6600 -64.0587 EX 25 -4 7 46
1962180N32282 1962 44 NA NA NOT_NAMED 1962-07-05 18:00:00 ET 43.0000 -63.7000 25 hurdat_atl main 125 123 O_____________ hurdat_atl AL061962 43.0000 -63.7000 EX 25 -4 8 43
1962180N32282 1962 44 NA NA NOT_NAMED 1962-07-05 21:00:00 ET 43.2350 -63.3347 main 135 107 P_____________ AL061962 43.2350 -63.3347 EX 25 -4 7 46
1962180N32282 1962 44 NA NA NOT_NAMED 1962-07-06 00:00:00 ET 43.5000 -63.0000 25 hurdat_atl main 110 92 O_____________ hurdat_atl AL061962 43.5000 -63.0000 EX 25 -4 7 36
1962180N32282 1962 44 NA NA NOT_NAMED 1962-07-06 03:00:00 ET 43.8300 -62.7306 main 97 60 P_____________ AL061962 43.8300 -62.7306 EX 25 -4 8 27
1962180N32282 1962 44 NA NA NOT_NAMED 1962-07-06 06:00:00 ET 44.2000 -62.5000 25 hurdat_atl main 60 O_____________ hurdat_atl AL061962 44.2000 -62.5000 EX 25 -4 8 24

About IBTrACS Database

This database is a web-friendly format of International Best Track Archive for Climate Stewardship (IBTrACS), a global best track data archive curated by NOAA dating back to 1842.

Updated: 2021-10-08